Beccles, United Kingdom
Current Conditions -  °F | °C
As of 8:20 AM on Friday 31 Oct 2014 (Local Time) from EGSD Reporting Station
Few Clouds Few Clouds  
Wind Chill: 59°   Ceiling: Unl
Heat Index: 59°   Visibility: 6mi
Dew Point: 57°   Wind: 8mph
Humidity: 94%   Direction: 210°SSW
Pressure: 30.06"   Gusts: NA
Location:  52.45°N, 1.56°E
Report Text: EGSD 310820Z 21007KT 9999 FEW035 15/14 Q1018
Loading
Personal Weather Stations






























Interactive Weather Map
Tropical Storm Tracking
New forecast layout! Learn more

10-Day Weather Forecast

Advertisements
Track Severe Weather on mobile